Information for Male Intl

back to airport list

ICAO Code:VRMM Country:Maldives
Airport Name:Male Intl Is Hub:No
Latitude:4.18879 Longitude:73.5286
Scheduled Departures:0 Scheduled Arrivals:0
Total Past Departures:1 Total Past Arrivals:1
Pilots Based:0 Current Pilot Location:0
VRMM 202000Z VRB02KT 9999 FEW019 SCT290 28/26 Q1010 NOSIG


Nearby Destination Airports

ICAO Airport Country GC Distance View
No destination airports within a 500 NM radius!


+ Show Timetable

Scheduled Departures from VRMM

Flight To Destination Days Dep. Time Aircraft Info
No Scheduled Departures!


Scheduled Arrivals to VRMM

Flight From Origin Days Arr. Time Aircraft Info
No Scheduled Arrivals!
+ Show Recent Flight Info

Recent Departures from VRMM

Flight To Destination Pilot Flighttime Landingrate Aircraft View
ASX189X VABB Mumbai Chhatrapati Shivaji Damian Belica 02.28.27 -184 ft/m B763 View Report


Recent Arrivals to VRMM

Flight From Origin Pilot Flighttime Landingrate Aircraft View
ASX189 VABB Mumbai Chhatrapati Shivaji Damian Belica 02.55.54 -178 ft/m B763 View Report
+ Show Pilot Information

Pilots based at VRMM

Avatar Pilot ID Name Location Rank View Profile
No Pilots are based at this airport!


Pilots currently at VRMM

Avatar Pilot ID Name Location Rank On Location since View Profile
Currently there are no pilots at this airport!
- Hide Map